Bari / Palese International Airport LIBD

Flugplatz Daten

Name: Bari / Palese International Airport

Ident: LIBD

Lat: 41,13890076

Long: 16,76059914

Platzhöhe: 177 ft

IataCode: BRI

City: Bari

Homepage: http://www.seap-puglia.it/default.asp?idlingua=2&idcontenuto=25

Metar

2021/08/05 14:20
LIBD 051420Z 22017KT 9999 FEW040 34/07 Q1007

Taf

2021/08/05 12:21
TAF LIBD 051100Z 0512/0612 26014KT 9999 FEW030
BECMG 0512/0514 08010KT
BECMG 0517/0519 28015KT
TEMPO 0521/0605 28015G25KT
BECMG 0608/0610 34013KT
Gewünschte Webcam nicht vorhanden? Dann fügen Sie eine hinzu. Sie wird dann so schnell wie möglich freigeschaltet
Url: Title: